createdAt,value
2019-01-17T00:01:12.851Z,63.77
2019-01-17T00:03:59.454Z,45.80
2019-01-17T00:06:41.870Z,46.77
2019-01-17T00:09:17.172Z,52.57
2019-01-17T00:11:53.467Z,88.40
2019-01-17T00:14:59.632Z,67.23
2019-01-17T00:17:35.078Z,74.87
2019-01-17T00:20:11.351Z,94.90
2019-01-17T00:23:03.133Z,98.57
2019-01-17T00:25:37.231Z,71.87
2019-01-17T00:28:14.423Z,88.73
2019-01-17T00:30:53.535Z,81.33
2019-01-17T00:33:43.991Z,58.63
2019-01-17T00:36:19.433Z,60.73
2019-01-17T00:39:02.763Z,58.03
2019-01-17T00:41:38.309Z,66.83
2019-01-17T00:44:13.650Z,67.70
2019-01-17T00:46:49.095Z,69.03
2019-01-17T00:49:26.327Z,82.83
2019-01-17T00:52:02.646Z,97.40
2019-01-17T00:55:41.066Z,117.93
2019-01-17T00:58:21.937Z,85.30
2019-01-17T01:01:56.365Z,99.73
2019-01-17T01:04:31.911Z,126.63
2019-01-17T01:07:17.492Z,151.60
2019-01-17T01:11:57.502Z,140.03
2019-01-17T01:14:32.984Z,85.50
2019-01-17T01:17:11.520Z,93.47
2019-01-17T01:19:52.901Z,68.73
2019-01-17T01:22:27.218Z,90.37
2019-01-17T01:25:08.909Z,80.80
2019-01-17T01:27:44.103Z,94.10
2019-01-17T01:30:19.695Z,124.87
2019-01-17T01:33:01.080Z,130.13
2019-01-17T01:35:35.601Z,98.23
2019-01-17T01:39:11.973Z,106.73
2019-01-17T01:41:49.568Z,69.17
2019-01-17T01:44:26.855Z,57.03
2019-01-17T01:47:02.351Z,43.00
2019-01-17T01:49:38.723Z,44.33
2019-01-17T01:53:14.935Z,58.90
2019-01-17T01:55:45.596Z,68.47
2019-01-17T01:58:16.035Z,55.60
2019-01-17T02:00:46.413Z,56.23
2019-01-17T02:03:16.836Z,49.23
2019-01-17T02:05:47.305Z,84.10
2019-01-17T02:08:17.787Z,58.03
2019-01-17T02:10:48.211Z,46.73
2019-01-17T02:13:18.632Z,48.83
2019-01-17T02:15:48.979Z,69.73
2019-01-17T02:18:19.495Z,55.37
2019-01-17T02:20:49.870Z,56.73
2019-01-17T02:23:20.219Z,56.20
2019-01-17T02:25:50.487Z,64.93
2019-01-17T02:28:20.290Z,65.20
2019-01-17T02:30:50.587Z,65.67
2019-01-17T02:33:21.029Z,67.53
2019-01-17T02:35:51.627Z,47.80
2019-01-17T02:38:22.056Z,47.50
2019-01-17T02:40:52.464Z,37.47
2019-01-17T02:43:22.939Z,35.50
2019-01-17T02:45:53.327Z,31.07
2019-01-17T02:48:23.762Z,24.40
2019-01-17T02:50:54.039Z,38.43
2019-01-17T02:53:24.549Z,42.17
2019-01-17T02:55:55.000Z,48.00
2019-01-17T02:58:25.491Z,47.67
2019-01-17T03:00:56.096Z,42.77
2019-01-17T03:03:26.654Z,40.97
2019-01-17T03:05:57.059Z,35.23
2019-01-17T03:08:27.539Z,53.07
2019-01-17T03:10:57.935Z,46.23
2019-01-17T03:13:28.433Z,41.00
2019-01-17T03:15:58.839Z,26.47
2019-01-17T03:18:29.434Z,25.43
2019-01-17T03:21:00.027Z,15.10
2019-01-17T03:23:30.431Z,14.50
2019-01-17T03:26:00.668Z,10.77
2019-01-17T03:28:31.116Z,11.13
2019-01-17T03:31:01.504Z,9.77
2019-01-17T03:33:31.787Z,7.57
2019-01-17T03:36:02.239Z,8.87
2019-01-17T03:38:32.725Z,9.00
2019-01-17T03:41:03.160Z,6.63
2019-01-17T03:43:33.597Z,7.63
2019-01-17T03:46:03.976Z,7.23
2019-01-17T03:48:34.333Z,6.60
2019-01-17T03:51:04.711Z,5.23
2019-01-17T03:53:35.202Z,7.20
2019-01-17T03:56:05.785Z,4.47
2019-01-17T03:58:36.315Z,6.67
2019-01-17T04:01:06.652Z,6.60
2019-01-17T04:03:37.353Z,4.77
2019-01-17T04:06:07.741Z,8.40
2019-01-17T04:08:38.262Z,6.57
2019-01-17T04:11:08.720Z,7.00
2019-01-17T04:13:39.072Z,4.97
2019-01-17T04:16:09.535Z,5.70
2019-01-17T04:18:39.970Z,5.07
2019-01-17T04:21:10.455Z,7.43
2019-01-17T04:23:40.727Z,5.13
2019-01-17T04:26:10.947Z,5.80
2019-01-17T04:28:41.195Z,5.23
2019-01-17T04:31:11.751Z,5.20
2019-01-17T04:33:42.124Z,5.73
2019-01-17T04:36:12.835Z,6.43
2019-01-17T04:38:43.132Z,6.37
2019-01-17T04:41:13.631Z,7.03
2019-01-17T04:43:44.060Z,7.27
2019-01-17T04:46:14.525Z,5.50
2019-01-17T04:48:44.944Z,6.50
2019-01-17T04:51:15.313Z,6.27
2019-01-17T04:53:45.585Z,5.43
2019-01-17T04:56:16.120Z,5.07
2019-01-17T04:58:46.647Z,6.87
2019-01-17T05:01:17.067Z,8.67
2019-01-17T05:03:47.524Z,7.77
2019-01-17T05:06:17.263Z,5.40
2019-01-17T05:08:47.583Z,5.47
2019-01-17T05:11:17.814Z,6.00
2019-01-17T05:13:48.644Z,6.40
2019-01-17T05:16:19.007Z,6.67
2019-01-17T05:18:49.405Z,7.77
2019-01-17T05:21:20.043Z,5.83
2019-01-17T05:23:50.433Z,6.73
2019-01-17T05:26:20.895Z,5.20
2019-01-17T05:28:51.198Z,8.30
2019-01-17T05:31:21.503Z,6.57
2019-01-17T05:33:52.028Z,7.30
2019-01-17T05:36:22.453Z,5.50
2019-01-17T05:38:52.895Z,5.33
2019-01-17T05:41:23.268Z,7.67
2019-01-17T05:43:53.655Z,7.80
2019-01-17T05:46:24.036Z,10.60
2019-01-17T05:48:54.559Z,8.27
2019-01-17T05:51:24.878Z,6.60
2019-01-17T05:53:55.203Z,6.47
2019-01-17T05:56:25.579Z,8.73
2019-01-17T05:58:56.118Z,7.70
2019-01-17T06:01:26.534Z,7.83
2019-01-17T06:03:57.022Z,7.37
2019-01-17T06:06:33.007Z,6.97
2019-01-17T06:08:57.771Z,8.20
2019-01-17T06:11:28.178Z,7.20
2019-01-17T06:13:58.548Z,7.10
2019-01-17T06:16:28.944Z,6.50
2019-01-17T06:18:59.435Z,6.77
2019-01-17T06:21:29.643Z,6.30
2019-01-17T06:23:59.952Z,7.77
2019-01-17T06:26:30.355Z,6.33
2019-01-17T06:29:00.631Z,7.43
2019-01-17T06:31:31.097Z,7.00
2019-01-17T06:34:01.442Z,8.60
2019-01-17T06:36:31.022Z,9.03
2019-01-17T06:39:01.372Z,8.47
2019-01-17T06:41:31.892Z,8.20
2019-01-17T06:44:02.164Z,10.87
2019-01-17T06:46:32.600Z,6.53
2019-01-17T06:49:02.847Z,6.30
2019-01-17T06:51:33.223Z,8.13
2019-01-17T06:54:03.650Z,6.93
2019-01-17T06:56:34.099Z,10.50
2019-01-17T06:59:04.650Z,9.37
2019-01-17T07:01:35.083Z,8.53
2019-01-17T07:04:05.827Z,6.70
2019-01-17T07:06:36.127Z,10.10
2019-01-17T07:09:09.295Z,10.43
2019-01-17T07:11:39.801Z,9.47
2019-01-17T07:14:10.123Z,9.90
2019-01-17T07:16:39.841Z,8.10
2019-01-17T07:19:10.351Z,10.43
2019-01-17T07:21:40.711Z,7.47
2019-01-17T07:24:11.328Z,8.67
2019-01-17T07:26:41.811Z,9.03
2019-01-17T07:29:12.360Z,8.23
2019-01-17T07:31:42.864Z,8.53
2019-01-17T07:34:13.283Z,7.63
2019-01-17T07:36:43.688Z,8.27
2019-01-17T07:39:14.044Z,9.60
2019-01-17T07:41:44.469Z,9.43
2019-01-17T07:44:14.924Z,8.93
2019-01-17T07:46:45.115Z,7.93
2019-01-17T07:49:15.575Z,8.63
2019-01-17T07:51:45.879Z,9.23
2019-01-17T07:54:16.150Z,7.90
2019-01-17T07:56:46.459Z,8.13
2019-01-17T07:59:16.859Z,9.57
2019-01-17T08:01:46.653Z,10.30
2019-01-17T08:04:16.943Z,10.37
2019-01-17T08:06:47.311Z,10.13
2019-01-17T08:09:17.707Z,9.00
2019-01-17T08:11:48.123Z,8.70
2019-01-17T08:14:18.612Z,10.03
2019-01-17T08:16:49.049Z,10.83
2019-01-17T08:19:19.423Z,13.37
2019-01-17T08:21:49.819Z,8.23
2019-01-17T08:24:20.287Z,8.57
2019-01-17T08:26:50.811Z,9.13
2019-01-17T08:29:21.286Z,11.93
2019-01-17T08:31:51.556Z,11.60
2019-01-17T08:34:28.128Z,9.07
2019-01-17T08:36:52.523Z,7.97
2019-01-17T08:39:22.872Z,7.77
2019-01-17T08:41:53.247Z,10.77
2019-01-17T08:44:24.035Z,11.33
2019-01-17T08:46:54.439Z,12.30
2019-01-17T08:49:24.871Z,10.37
2019-01-17T08:51:55.329Z,10.47
2019-01-17T08:54:25.742Z,11.13
2019-01-17T08:56:56.018Z,10.00
2019-01-17T08:59:26.427Z,8.97
2019-01-17T09:01:56.767Z,10.97
2019-01-17T09:04:27.450Z,11.17
2019-01-17T09:06:57.785Z,11.90
2019-01-17T09:09:28.084Z,10.13
2019-01-17T09:11:58.447Z,8.80
2019-01-17T09:14:28.821Z,10.00
2019-01-17T09:16:59.087Z,13.97
2019-01-17T09:19:29.290Z,12.97
2019-01-17T09:21:59.530Z,10.20
2019-01-17T09:24:30.040Z,10.47
2019-01-17T09:27:00.715Z,10.07
2019-01-17T09:29:31.356Z,10.83
2019-01-17T09:32:01.833Z,9.90
2019-01-17T09:34:31.554Z,10.03
2019-01-17T09:37:01.844Z,10.67
2019-01-17T09:39:32.264Z,10.63
2019-01-17T09:42:02.560Z,10.67
2019-01-17T09:44:33.067Z,9.53
2019-01-17T09:47:03.208Z,12.37
2019-01-17T09:49:33.655Z,9.90
2019-01-17T09:52:04.071Z,9.40
2019-01-17T09:54:34.515Z,11.70
2019-01-17T09:57:04.881Z,9.87
2019-01-17T09:59:35.291Z,10.03
2019-01-17T10:02:05.671Z,10.77
2019-01-17T10:04:36.364Z,11.10
2019-01-17T10:07:06.791Z,10.93
2019-01-17T10:09:37.199Z,10.87
2019-01-17T10:12:07.480Z,11.77
2019-01-17T10:14:37.905Z,9.40
2019-01-17T10:17:18.996Z,10.93
2019-01-17T10:20:14.149Z,12.07
2019-01-17T10:24:09.567Z,11.17
2019-01-17T10:26:47.018Z,11.20
2019-01-17T10:29:42.206Z,10.97
2019-01-17T10:32:53.081Z,10.60
2019-01-17T10:37:45.330Z,9.40
2019-01-17T10:42:40.191Z,9.33
2019-01-17T10:46:24.667Z,9.17
2019-01-17T10:51:09.749Z,8.93
2019-01-17T10:55:51.043Z,10.33
2019-01-17T10:58:34.000Z,11.17
2019-01-17T11:01:18.929Z,9.03
2019-01-17T11:03:59.907Z,11.77
2019-01-17T11:06:51.109Z,9.97
2019-01-17T11:09:46.734Z,9.33
2019-01-17T11:13:00.681Z,9.17
2019-01-17T11:16:14.424Z,9.03
2019-01-17T11:19:02.392Z,8.30
2019-01-17T11:23:49.444Z,11.90
2019-01-17T11:27:29.347Z,8.77
2019-01-17T11:32:32.658Z,10.83
2019-01-17T11:36:10.769Z,8.47
2019-01-17T11:38:58.620Z,10.47
2019-01-17T11:42:50.235Z,8.60
2019-01-17T11:45:34.995Z,8.83
2019-01-17T11:48:48.635Z,7.23
2019-01-17T11:51:30.367Z,9.00
2019-01-17T11:54:10.831Z,11.00
2019-01-17T11:57:07.940Z,9.67
2019-01-17T11:59:47.227Z,8.43
2019-01-17T12:04:00.309Z,10.57
2019-01-17T12:06:30.631Z,8.53
2019-01-17T12:09:00.871Z,8.57
2019-01-17T12:11:31.312Z,9.37
2019-01-17T12:14:01.550Z,7.70
2019-01-17T12:16:31.894Z,9.67
2019-01-17T12:19:02.246Z,8.47
2019-01-17T12:21:32.715Z,8.73
2019-01-17T12:24:03.066Z,8.53
2019-01-17T12:26:33.431Z,9.10
2019-01-17T12:29:03.940Z,9.70
2019-01-17T12:31:34.619Z,7.00
2019-01-17T12:34:05.155Z,7.20
2019-01-17T12:36:35.787Z,6.90
2019-01-17T12:39:09.144Z,7.40
2019-01-17T12:41:39.367Z,7.50
2019-01-17T12:44:09.823Z,8.57
2019-01-17T12:46:40.159Z,10.27
2019-01-17T12:49:10.597Z,8.03
2019-01-17T12:51:41.035Z,8.20
2019-01-17T12:54:10.791Z,27.20
2019-01-17T12:56:41.220Z,27.70
2019-01-17T12:59:11.490Z,12.00
2019-01-17T13:01:41.889Z,9.90
2019-01-17T13:04:12.375Z,10.57
2019-01-17T13:06:42.640Z,10.03
2019-01-17T13:09:13.315Z,9.07
2019-01-17T13:11:43.732Z,10.03
2019-01-17T13:14:14.027Z,9.23
2019-01-17T13:16:44.419Z,10.40
2019-01-17T13:19:14.824Z,11.23
2019-01-17T13:21:45.307Z,11.97
2019-01-17T13:24:15.732Z,10.43
2019-01-17T13:26:46.107Z,10.50
2019-01-17T13:29:15.846Z,11.57
2019-01-17T13:31:46.259Z,11.40
2019-01-17T13:34:16.531Z,11.23
2019-01-17T13:36:47.111Z,11.90
2019-01-17T13:39:17.330Z,12.27
2019-01-17T13:41:47.655Z,9.50
2019-01-17T13:44:17.945Z,11.17
2019-01-17T13:46:48.139Z,10.20
2019-01-17T13:49:18.479Z,10.80
2019-01-17T13:51:48.776Z,9.40
2019-01-17T13:54:19.167Z,9.53
2019-01-17T13:56:49.352Z,8.87
2019-01-17T13:59:19.810Z,9.33
2019-01-17T14:01:50.131Z,8.17
2019-01-17T14:04:20.530Z,9.93
2019-01-17T14:06:50.836Z,11.67
2019-01-17T14:09:21.440Z,10.77
2019-01-17T14:11:51.627Z,9.87
2019-01-17T14:14:21.960Z,9.43
2019-01-17T14:16:52.263Z,11.53
2019-01-17T14:19:22.557Z,10.00
2019-01-17T14:21:52.843Z,8.77
2019-01-17T14:24:23.196Z,11.63
2019-01-17T14:26:53.735Z,9.13
2019-01-17T14:29:24.096Z,9.93
2019-01-17T14:31:55.260Z,8.90
2019-01-17T14:34:25.641Z,9.40
2019-01-17T14:36:55.911Z,9.43
2019-01-17T14:39:26.364Z,7.47
2019-01-17T14:41:56.627Z,8.40
2019-01-17T14:44:26.968Z,8.13
2019-01-17T14:46:57.241Z,10.20
2019-01-17T14:49:27.775Z,9.80
2019-01-17T14:51:58.067Z,11.33
2019-01-17T14:54:28.468Z,9.73
2019-01-17T14:56:58.747Z,10.20
2019-01-17T14:59:29.070Z,9.27
2019-01-17T15:01:59.335Z,9.73
2019-01-17T15:04:29.048Z,10.57
2019-01-17T15:06:59.212Z,9.70
2019-01-17T15:09:29.594Z,8.90
2019-01-17T15:11:59.899Z,7.77
2019-01-17T15:14:30.282Z,9.80
2019-01-17T15:17:00.728Z,10.33
2019-01-17T15:19:31.540Z,10.67
2019-01-17T15:22:01.889Z,11.67
2019-01-17T15:24:32.290Z,10.63
2019-01-17T15:27:02.696Z,9.73
2019-01-17T15:29:33.279Z,11.20
2019-01-17T15:32:03.783Z,11.47
2019-01-17T15:34:34.183Z,10.10
2019-01-17T15:37:04.579Z,10.57
2019-01-17T15:39:34.933Z,10.67
2019-01-17T15:42:05.359Z,13.03
2019-01-17T15:44:35.747Z,13.23
2019-01-17T15:47:06.433Z,14.00
2019-01-17T15:49:36.841Z,11.47
2019-01-17T15:52:07.192Z,9.57
2019-01-17T15:54:37.797Z,11.83
2019-01-17T15:57:08.284Z,10.90
2019-01-17T15:59:38.779Z,10.30
2019-01-17T16:02:09.063Z,11.20
2019-01-17T16:04:39.235Z,10.77
2019-01-17T16:07:09.565Z,10.53
2019-01-17T16:09:39.945Z,10.27
2019-01-17T16:12:10.068Z,10.30
2019-01-17T16:14:40.358Z,11.97
2019-01-17T16:17:10.819Z,9.97
2019-01-17T16:19:41.131Z,9.07
2019-01-17T16:22:11.503Z,10.20
2019-01-17T16:24:41.851Z,14.30
2019-01-17T16:27:12.153Z,10.47
2019-01-17T16:29:42.840Z,11.47
2019-01-17T16:32:13.100Z,10.87
2019-01-17T16:34:43.475Z,12.50
2019-01-17T16:37:13.888Z,12.43
2019-01-17T16:39:44.462Z,10.53
2019-01-17T16:42:14.677Z,12.27
2019-01-17T16:44:45.024Z,13.63
2019-01-17T16:47:15.360Z,12.13
2019-01-17T16:49:45.699Z,11.10
2019-01-17T16:52:16.011Z,14.27
2019-01-17T16:54:46.844Z,12.57
2019-01-17T16:57:17.196Z,11.90
2019-01-17T16:59:47.572Z,9.70
2019-01-17T17:02:17.827Z,12.17
2019-01-17T17:04:48.200Z,11.17
2019-01-17T17:07:18.738Z,11.13
2019-01-17T17:09:49.016Z,10.67
2019-01-17T17:12:19.379Z,10.43
2019-01-17T17:14:49.632Z,11.97
2019-01-17T17:17:19.996Z,12.43
2019-01-17T17:19:49.749Z,10.47
2019-01-17T17:22:19.859Z,10.27
2019-01-17T17:24:50.175Z,11.80
2019-01-17T17:27:21.159Z,10.33
2019-01-17T17:29:51.803Z,10.93
2019-01-17T17:32:22.244Z,10.87
2019-01-17T17:34:52.602Z,11.67
2019-01-17T17:37:22.827Z,10.27
2019-01-17T17:39:53.163Z,10.90
2019-01-17T17:42:23.483Z,11.77
2019-01-17T17:44:53.859Z,12.53
2019-01-17T17:47:24.189Z,10.70
2019-01-17T17:49:54.597Z,12.97
2019-01-17T17:52:24.905Z,11.80
2019-01-17T17:54:55.295Z,11.50
2019-01-17T17:57:25.488Z,8.70
2019-01-17T17:59:55.928Z,11.67
2019-01-17T18:02:29.753Z,11.07
2019-01-17T18:04:59.974Z,9.40
2019-01-17T18:07:30.095Z,9.80
2019-01-17T18:10:00.411Z,11.07
2019-01-17T18:12:31.524Z,11.73
2019-01-17T18:15:01.887Z,10.70
2019-01-17T18:17:32.171Z,11.70
2019-01-17T18:20:02.615Z,10.80
2019-01-17T18:22:32.901Z,10.43
2019-01-17T18:25:03.242Z,9.67
2019-01-17T18:27:33.948Z,12.73
2019-01-17T18:30:04.742Z,11.23
2019-01-17T18:32:34.938Z,11.90
2019-01-17T18:35:05.879Z,13.40
2019-01-17T18:37:36.403Z,13.30
2019-01-17T18:40:08.643Z,14.07
2019-01-17T18:42:38.935Z,12.20
2019-01-17T18:45:11.547Z,11.57
2019-01-17T18:47:41.976Z,14.33
2019-01-17T18:50:15.692Z,13.57
2019-01-17T18:52:46.195Z,11.27
2019-01-17T18:55:17.524Z,11.93
2019-01-17T18:57:47.027Z,12.13
2019-01-17T19:00:21.610Z,13.33
2019-01-17T19:02:52.111Z,13.97
2019-01-17T19:05:22.677Z,11.83
2019-01-17T19:07:53.010Z,12.53
2019-01-17T19:10:23.763Z,13.60
2019-01-17T19:12:54.536Z,15.53
2019-01-17T19:15:28.092Z,13.67
2019-01-17T19:17:58.483Z,13.63
2019-01-17T19:20:28.499Z,14.70
2019-01-17T19:22:58.066Z,13.53
2019-01-17T19:25:28.334Z,13.87
2019-01-17T19:27:59.210Z,13.97
2019-01-17T19:30:30.771Z,13.33
2019-01-17T19:33:01.093Z,11.67
2019-01-17T19:35:31.355Z,13.87
2019-01-17T19:38:01.763Z,14.63
2019-01-17T19:40:32.150Z,13.40
2019-01-17T19:43:02.268Z,12.70
2019-01-17T19:45:32.752Z,11.20
2019-01-17T19:48:02.988Z,12.90
2019-01-17T19:50:35.534Z,12.97
2019-01-17T19:53:06.370Z,12.73
2019-01-17T19:55:36.962Z,13.53
2019-01-17T19:58:10.570Z,14.50
2019-01-17T20:00:40.940Z,14.73
2019-01-17T20:03:11.524Z,12.33
2019-01-17T20:05:41.938Z,14.60
2019-01-17T20:08:12.255Z,12.33
2019-01-17T20:10:42.555Z,14.50
2019-01-17T20:13:12.979Z,12.53
2019-01-17T20:15:43.411Z,11.57
2019-01-17T20:18:13.597Z,12.00
2019-01-17T20:20:44.972Z,10.70
2019-01-17T20:23:15.344Z,13.10
2019-01-17T20:25:45.684Z,11.90
2019-01-17T20:28:16.300Z,11.90
2019-01-17T20:30:47.231Z,9.53
2019-01-17T20:33:17.624Z,10.67
2019-01-17T20:35:47.984Z,11.70
2019-01-17T20:38:18.135Z,13.27
2019-01-17T20:40:48.660Z,11.53
2019-01-17T20:43:18.855Z,13.73
2019-01-17T20:45:49.273Z,13.13
2019-01-17T20:48:19.443Z,11.43
2019-01-17T20:50:49.825Z,12.40
2019-01-17T20:53:24.831Z,14.80
2019-01-17T20:55:55.204Z,13.50
2019-01-17T20:58:25.775Z,13.27
2019-01-17T21:01:17.076Z,13.27
2019-01-17T21:03:47.687Z,13.60
2019-01-17T21:06:18.172Z,15.00
2019-01-17T21:08:48.576Z,13.23
2019-01-17T21:11:18.914Z,10.97
2019-01-17T21:13:49.392Z,9.90
2019-01-17T21:16:19.786Z,8.63
2019-01-17T21:18:50.117Z,8.60
2019-01-17T21:21:20.636Z,5.70
2019-01-17T21:23:51.067Z,6.93
2019-01-17T21:26:21.555Z,6.77
2019-01-17T21:28:52.119Z,6.70
2019-01-17T21:31:22.436Z,8.77
2019-01-17T21:33:52.143Z,8.60
2019-01-17T21:36:22.355Z,8.70
2019-01-17T21:38:51.999Z,8.90
2019-01-17T21:41:22.316Z,8.37
2019-01-17T21:43:52.643Z,9.57
2019-01-17T21:46:23.055Z,9.67
2019-01-17T21:48:53.451Z,10.70
2019-01-17T21:51:23.920Z,6.90
2019-01-17T21:53:54.412Z,11.23
2019-01-17T21:56:24.896Z,7.60
2019-01-17T21:58:55.966Z,12.83
2019-01-17T22:01:25.758Z,11.63
2019-01-17T22:03:56.174Z,8.20
2019-01-17T22:06:26.833Z,6.43
2019-01-17T22:08:57.123Z,8.93
2019-01-17T22:11:27.946Z,7.70
2019-01-17T22:13:58.202Z,6.33
2019-01-17T22:16:28.746Z,8.23
2019-01-17T22:18:59.087Z,5.93
2019-01-17T22:21:28.830Z,6.27
2019-01-17T22:23:59.211Z,8.77
2019-01-17T22:26:29.659Z,4.97
2019-01-17T22:29:02.562Z,5.77
2019-01-17T22:31:30.727Z,6.17
2019-01-17T22:34:02.064Z,7.07
2019-01-17T22:36:32.517Z,8.00
2019-01-17T22:39:03.094Z,15.07
2019-01-17T22:41:33.459Z,7.97
2019-01-17T22:44:04.086Z,7.37
2019-01-17T22:46:33.761Z,6.60
2019-01-17T22:49:04.071Z,6.53
2019-01-17T22:51:34.472Z,4.00
2019-01-17T22:54:04.744Z,3.13
2019-01-17T22:56:35.095Z,4.87
2019-01-17T22:59:09.210Z,2.53
2019-01-17T23:01:35.920Z,3.27
2019-01-17T23:04:07.567Z,4.17
2019-01-17T23:06:37.928Z,2.83
2019-01-17T23:09:09.389Z,2.10
2019-01-17T23:11:39.879Z,1.83
2019-01-17T23:14:10.372Z,1.00
2019-01-17T23:16:40.784Z,1.17
2019-01-17T23:19:11.255Z,1.17
2019-01-17T23:21:41.839Z,1.47
2019-01-17T23:24:12.311Z,3.90
2019-01-17T23:26:42.772Z,1.83
2019-01-17T23:29:16.048Z,1.60
2019-01-17T23:31:43.024Z,1.93
2019-01-17T23:34:13.821Z,2.47
2019-01-17T23:36:44.195Z,2.53
2019-01-17T23:39:14.809Z,4.40
2019-01-17T23:41:45.111Z,2.37
2019-01-17T23:44:15.607Z,2.43
2019-01-17T23:46:46.308Z,1.83
2019-01-17T23:49:16.653Z,2.07
2019-01-17T23:51:47.279Z,2.53
2019-01-17T23:54:17.568Z,1.23
2019-01-17T23:56:47.869Z,3.80
2019-01-17T23:59:22.586Z,1.97
